createdAt,value
2023-03-27T00:01:18.005Z,99929.97
2023-03-27T00:03:49.445Z,99927.41
2023-03-27T00:06:19.854Z,99884.88
2023-03-27T00:08:50.624Z,99928.97
2023-03-27T00:11:20.767Z,99929.97
2023-03-27T00:13:51.323Z,99884.16
2023-03-27T00:16:20.118Z,99929.16
2023-03-27T00:18:48.957Z,99878.66
2023-03-27T00:21:17.685Z,99925.63
2023-03-27T00:23:45.731Z,99876.88
2023-03-27T00:26:14.617Z,99925.53
2023-03-27T00:28:44.028Z,99920.28
2023-03-27T00:31:13.045Z,99916.75
2023-03-27T00:33:41.589Z,99887.53
2023-03-27T00:36:11.048Z,99917.72
2023-03-27T00:38:41.640Z,99916.84
2023-03-27T00:41:10.337Z,99917.63
2023-03-27T00:43:43.707Z,99843.13
2023-03-27T00:46:31.773Z,99887.72
2023-03-27T00:49:03.161Z,99902.13
2023-03-27T00:51:32.556Z,99875.69
2023-03-27T00:54:01.988Z,99909.03
2023-03-27T00:56:33.412Z,99908.25
2023-03-27T00:59:04.211Z,99897.19
2023-03-27T01:01:33.734Z,99892.03
2023-03-27T01:04:04.194Z,99883.44
2023-03-27T01:06:33.135Z,99894.72
2023-03-27T01:09:01.041Z,99837.28
2023-03-27T01:11:39.951Z,99886.22
2023-03-27T01:14:16.726Z,99882.84
2023-03-27T01:16:58.732Z,99874.16
2023-03-27T01:20:14.361Z,99829.50
2023-03-27T01:23:09.093Z,99770.75
2023-03-27T01:26:00.843Z,99842.31
2023-03-27T01:28:40.050Z,99894.81
2023-03-27T01:31:33.729Z,99884.63
2023-03-27T01:34:34.675Z,99890.66
2023-03-27T01:37:31.015Z,99893.03
2023-03-27T01:40:07.820Z,99896.28
2023-03-27T01:42:43.515Z,99889.47
2023-03-27T01:45:16.779Z,99889.47
2023-03-27T01:47:52.821Z,99837.78
2023-03-27T01:50:28.578Z,99888.31
2023-03-27T01:53:03.326Z,99898.38
2023-03-27T01:55:37.470Z,99897.59
2023-03-27T01:58:14.071Z,99888.22
2023-03-27T02:00:51.010Z,99823.84
2023-03-27T02:03:24.032Z,99870.66
2023-03-27T02:05:56.916Z,99887.91
2023-03-27T02:08:31.843Z,99896.41
2023-03-27T02:11:01.692Z,99900.56
2023-03-27T02:13:35.375Z,99753.13
2023-03-27T02:16:05.851Z,99812.00
2023-03-27T02:18:37.048Z,99896.63
2023-03-27T02:21:06.322Z,99820.78
2023-03-27T02:23:37.725Z,99915.38
2023-03-27T02:26:07.914Z,99918.72
2023-03-27T02:28:55.113Z,99877.47
2023-03-27T02:31:42.527Z,99912.41
2023-03-27T02:34:35.169Z,99901.97
2023-03-27T02:37:17.614Z,99901.06
2023-03-27T02:39:56.004Z,99930.00
2023-03-27T02:42:32.772Z,99839.44
2023-03-27T02:45:08.183Z,99906.09
2023-03-27T02:47:41.927Z,99905.22
2023-03-27T02:50:15.727Z,99907.69
2023-03-27T02:52:46.936Z,99907.69
2023-03-27T02:55:19.229Z,99901.56
2023-03-27T02:57:54.760Z,99901.75
2023-03-27T03:00:26.347Z,99909.38
2023-03-27T03:03:02.073Z,99916.88
2023-03-27T03:05:30.740Z,99912.41
2023-03-27T03:07:58.986Z,99914.88
2023-03-27T03:10:28.461Z,99921.69
2023-03-27T03:12:58.202Z,99906.13
2023-03-27T03:15:26.167Z,99921.59
2023-03-27T03:17:54.669Z,99893.00
2023-03-27T03:20:23.997Z,99919.75
2023-03-27T03:22:52.027Z,99933.38
2023-03-27T03:25:20.001Z,99928.03
2023-03-27T03:27:47.867Z,99928.84
2023-03-27T03:30:20.167Z,99881.75
2023-03-27T03:32:48.241Z,99937.41
2023-03-27T03:35:16.407Z,99896.06
2023-03-27T03:37:51.130Z,99932.69
2023-03-27T03:40:20.896Z,99905.91
2023-03-27T03:42:50.466Z,99927.25
2023-03-27T03:45:21.065Z,99928.13
2023-03-27T03:47:48.993Z,99907.50
2023-03-27T03:50:17.546Z,99871.25
2023-03-27T03:52:47.234Z,99852.91
2023-03-27T03:55:15.963Z,99862.66
2023-03-27T03:57:47.091Z,99945.78
2023-03-27T04:00:17.172Z,99942.22
2023-03-27T04:02:52.191Z,99965.31
2023-03-27T04:05:20.834Z,99948.16
2023-03-27T04:07:49.873Z,99942.81
2023-03-27T04:10:18.023Z,99822.75
2023-03-27T04:12:48.584Z,99951.28
2023-03-27T04:15:16.831Z,99946.94
2023-03-27T04:17:46.045Z,99922.84
2023-03-27T04:20:17.383Z,99921.06
2023-03-27T04:22:46.781Z,99952.66
2023-03-27T04:25:17.238Z,99952.66
2023-03-27T04:27:46.116Z,99858.56
2023-03-27T04:30:15.836Z,99956.91
2023-03-27T04:32:43.951Z,99923.44
2023-03-27T04:35:12.107Z,99944.09
2023-03-27T04:37:43.465Z,99949.91
2023-03-27T04:40:14.562Z,99882.16
2023-03-27T04:42:44.102Z,99903.69
2023-03-27T04:45:14.761Z,99872.28
2023-03-27T04:47:43.110Z,99902.78
2023-03-27T04:50:12.905Z,99931.91
2023-03-27T04:52:42.432Z,99906.72
2023-03-27T04:55:12.409Z,99959.16
2023-03-27T04:57:44.402Z,99954.72
2023-03-27T05:00:19.028Z,99956.50
2023-03-27T05:02:47.841Z,99954.03
2023-03-27T05:05:19.529Z,99958.38
2023-03-27T05:07:50.559Z,99953.25
2023-03-27T05:10:21.748Z,99926.59
2023-03-27T05:12:56.422Z,99954.03
2023-03-27T05:15:25.830Z,99885.28
2023-03-27T05:17:54.988Z,99937.72
2023-03-27T05:20:23.602Z,99826.19
2023-03-27T05:22:56.263Z,99960.47
2023-03-27T05:25:25.787Z,99936.56
2023-03-27T05:27:54.454Z,99971.59
2023-03-27T05:30:23.923Z,99900.59
2023-03-27T05:32:53.908Z,99916.13
2023-03-27T05:35:24.452Z,99927.19
2023-03-27T05:37:55.327Z,99975.38
2023-03-27T05:40:26.306Z,99966.31
2023-03-27T05:42:57.764Z,99938.84
2023-03-27T05:45:26.153Z,99919.41
2023-03-27T05:47:55.679Z,99938.56
2023-03-27T05:50:26.596Z,99963.34
2023-03-27T05:53:01.743Z,99964.25
2023-03-27T05:55:30.811Z,99911.13
2023-03-27T05:58:00.167Z,99965.25
2023-03-27T06:00:32.092Z,99948.84
2023-03-27T06:03:02.159Z,99984.50
2023-03-27T06:05:31.359Z,99963.97
2023-03-27T06:08:02.577Z,99966.91
2023-03-27T06:10:34.641Z,99965.22
2023-03-27T06:13:05.471Z,99964.53
2023-03-27T06:15:34.884Z,99966.31
2023-03-27T06:18:03.300Z,99969.06
2023-03-27T06:20:33.337Z,99972.63
2023-03-27T06:23:06.320Z,99961.88
2023-03-27T06:25:35.943Z,99973.22
2023-03-27T06:28:07.166Z,99961.59
2023-03-27T06:30:37.908Z,99959.03
2023-03-27T06:33:08.126Z,99929.13
2023-03-27T06:35:36.706Z,99914.81
2023-03-27T06:38:09.762Z,99987.66
2023-03-27T06:40:39.590Z,99986.06
2023-03-27T06:43:10.003Z,99981.13
2023-03-27T06:45:43.142Z,99817.69
2023-03-27T06:48:17.932Z,99984.19
2023-03-27T06:50:50.078Z,99921.53
2023-03-27T06:55:52.052Z,99984.19
2023-03-27T06:58:20.735Z,99972.06
2023-03-27T07:00:50.384Z,99961.78
2023-03-27T07:03:20.802Z,99891.59
2023-03-27T07:05:49.992Z,99987.06
2023-03-27T07:08:25.379Z,99958.41
2023-03-27T07:13:26.456Z,99992.19
2023-03-27T07:15:55.038Z,99981.31
2023-03-27T07:18:23.968Z,99992.47
2023-03-27T07:20:54.424Z,99992.66
2023-03-27T07:23:26.334Z,99994.44
2023-03-27T07:25:59.320Z,99992.66
2023-03-27T07:28:28.120Z,99991.97
2023-03-27T07:30:56.481Z,99998.38
2023-03-27T07:33:25.231Z,99968.34
2023-03-27T07:35:53.513Z,99999.56
2023-03-27T07:38:22.333Z,99996.38
2023-03-27T07:40:52.317Z,99989.66
2023-03-27T07:43:20.242Z,99998.84
2023-03-27T07:45:49.792Z,99954.44
2023-03-27T07:48:19.763Z,100002.91
2023-03-27T07:50:49.117Z,100003.59
2023-03-27T07:53:33.584Z,99997.47
2023-03-27T07:56:03.985Z,100006.00
2023-03-27T07:58:31.993Z,99871.53
2023-03-27T08:01:02.718Z,100009.53
2023-03-27T08:03:32.122Z,99977.34
2023-03-27T08:06:01.364Z,99937.25
2023-03-27T08:08:31.966Z,100006.75
2023-03-27T08:11:05.612Z,99972.47
2023-03-27T08:13:38.946Z,99990.31
2023-03-27T08:16:10.660Z,99997.22
2023-03-27T08:18:39.065Z,99897.66
2023-03-27T08:21:11.495Z,99979.34
2023-03-27T08:23:41.256Z,100006.13
2023-03-27T08:26:11.508Z,100003.34
2023-03-27T08:28:40.314Z,99851.59
2023-03-27T08:31:13.329Z,100008.28
2023-03-27T08:33:43.311Z,99840.13
2023-03-27T08:36:14.529Z,100003.88
2023-03-27T08:38:45.297Z,100003.19
2023-03-27T08:41:30.432Z,100005.47
2023-03-27T08:44:03.590Z,100003.28
2023-03-27T08:46:41.797Z,100012.25
2023-03-27T08:49:16.907Z,100005.69
2023-03-27T08:52:07.350Z,100009.34
2023-03-27T08:54:48.357Z,99939.81
2023-03-27T08:57:21.085Z,100017.09
2023-03-27T08:59:49.731Z,100016.03
2023-03-27T09:02:29.209Z,99851.19
2023-03-27T09:05:01.689Z,100011.31
2023-03-27T09:07:36.454Z,100013.88
2023-03-27T09:10:17.381Z,99966.09
2023-03-27T09:13:01.027Z,99918.53
2023-03-27T09:15:33.015Z,99937.53
2023-03-27T09:18:07.957Z,100009.81
2023-03-27T09:20:42.717Z,99985.84
2023-03-27T09:23:15.504Z,100018.16
2023-03-27T09:25:51.288Z,99840.03
2023-03-27T09:28:23.747Z,100024.91
2023-03-27T09:30:54.152Z,100023.13
2023-03-27T09:33:22.577Z,100026.31
2023-03-27T09:35:51.352Z,100028.41
2023-03-27T09:38:28.209Z,99944.66
2023-03-27T09:41:00.372Z,99924.50
2023-03-27T09:43:41.135Z,100002.56
2023-03-27T09:46:10.463Z,100033.09
2023-03-27T09:48:49.337Z,100002.44
2023-03-27T09:51:37.352Z,100024.44
2023-03-27T09:54:06.494Z,100012.16
2023-03-27T09:56:42.287Z,100006.81
2023-03-27T09:59:21.298Z,100046.44
2023-03-27T10:01:50.799Z,100042.97
2023-03-27T10:04:21.893Z,100043.34
2023-03-27T10:06:59.698Z,100043.25
2023-03-27T10:09:32.576Z,100020.44
2023-03-27T10:12:11.229Z,100041.28
2023-03-27T10:14:47.685Z,100021.91
2023-03-27T10:17:26.404Z,99961.53
2023-03-27T10:19:59.806Z,100036.97
2023-03-27T10:22:31.063Z,99976.34
2023-03-27T10:25:03.278Z,100041.13
2023-03-27T10:27:37.843Z,100042.31
2023-03-27T10:30:27.463Z,100014.34
2023-03-27T10:32:55.792Z,100052.97
2023-03-27T10:35:27.515Z,99998.94
2023-03-27T10:37:56.749Z,100058.09
2023-03-27T10:40:28.502Z,100043.31
2023-03-27T10:42:58.127Z,100069.28
2023-03-27T10:45:28.562Z,99987.00
2023-03-27T10:47:59.947Z,99905.78
2023-03-27T10:50:31.745Z,100065.63
2023-03-27T10:53:05.518Z,100040.47
2023-03-27T10:55:44.500Z,100072.97
2023-03-27T10:58:34.190Z,100076.63
2023-03-27T11:01:11.586Z,99983.41
2023-03-27T11:03:48.310Z,100076.63
2023-03-27T11:06:19.264Z,100076.03
2023-03-27T11:08:58.532Z,100070.50
2023-03-27T11:11:30.296Z,100084.84
2023-03-27T11:14:02.732Z,100045.34
2023-03-27T11:16:37.543Z,100093.06
2023-03-27T11:19:34.706Z,100092.56
2023-03-27T11:22:08.079Z,100049.69
2023-03-27T11:24:41.812Z,99661.31
2023-03-27T11:27:16.231Z,100025.47
2023-03-27T11:29:51.459Z,100093.75
2023-03-27T11:32:28.531Z,100098.09
2023-03-27T11:35:04.065Z,100098.97
2023-03-27T11:37:41.679Z,100075.47
2023-03-27T11:40:17.306Z,100087.22
2023-03-27T11:42:47.353Z,99928.16
2023-03-27T11:45:17.562Z,100101.56
2023-03-27T11:48:11.000Z,100016.97
2023-03-27T11:50:46.581Z,100088.63
2023-03-27T11:53:40.264Z,100069.25
2023-03-27T11:56:21.012Z,100055.09
2023-03-27T11:59:05.595Z,100089.28
2023-03-27T12:01:39.771Z,100092.56
2023-03-27T12:04:31.076Z,100090.38
2023-03-27T12:07:09.803Z,100010.66
2023-03-27T12:09:53.411Z,100063.50
2023-03-27T12:12:39.888Z,100039.97
2023-03-27T12:15:23.013Z,99930.38
2023-03-27T12:18:03.393Z,100086.63
2023-03-27T12:21:00.838Z,100093.94
2023-03-27T12:23:54.155Z,100097.69
2023-03-27T12:27:19.289Z,100073.06
2023-03-27T12:29:58.539Z,100089.00
2023-03-27T12:32:54.647Z,100091.56
2023-03-27T12:35:28.157Z,100086.22
2023-03-27T12:38:01.776Z,100085.91
2023-03-27T12:40:33.199Z,100067.25
2023-03-27T12:43:23.747Z,100088.97
2023-03-27T12:46:11.625Z,100067.44
2023-03-27T12:48:53.341Z,99994.75
2023-03-27T12:51:37.857Z,100095.78
2023-03-27T12:54:32.517Z,100095.34
2023-03-27T12:57:06.038Z,100100.41
2023-03-27T12:59:39.787Z,100049.34
2023-03-27T13:02:36.974Z,100091.31
2023-03-27T13:05:27.280Z,100092.34
2023-03-27T13:08:08.341Z,100105.41
2023-03-27T13:10:56.721Z,100062.53
2023-03-27T13:14:23.861Z,100098.78
2023-03-27T13:17:10.033Z,100104.50
2023-03-27T13:19:53.091Z,100006.72
2023-03-27T13:22:32.056Z,100092.75
2023-03-27T13:25:23.085Z,100075.75
2023-03-27T13:28:27.895Z,100106.88
2023-03-27T13:30:56.957Z,100104.41
2023-03-27T13:33:28.065Z,100097.28
2023-03-27T13:36:07.353Z,100101.06
2023-03-27T13:39:11.898Z,100111.63
2023-03-27T13:41:55.869Z,99968.09
2023-03-27T13:44:35.560Z,100111.03
2023-03-27T13:47:29.704Z,100104.81
2023-03-27T13:50:15.425Z,100115.09
2023-03-27T13:53:10.623Z,100107.28
2023-03-27T13:55:53.082Z,100009.09
2023-03-27T13:58:53.787Z,100110.97
2023-03-27T14:01:40.442Z,99895.63
2023-03-27T14:04:59.208Z,100122.31
2023-03-27T14:07:49.499Z,100115.09
2023-03-27T14:10:37.954Z,100125.38
2023-03-27T14:13:24.849Z,99930.25
2023-03-27T14:16:24.560Z,100129.03
2023-03-27T14:19:16.965Z,100123.09
2023-03-27T14:21:56.176Z,100126.38
2023-03-27T14:24:32.486Z,100022.50
2023-03-27T14:27:02.393Z,100135.16
2023-03-27T14:29:32.583Z,100052.44
2023-03-27T14:32:04.811Z,100029.72
2023-03-27T14:34:47.430Z,100108.69
2023-03-27T14:37:29.389Z,100103.34
2023-03-27T14:39:58.604Z,100146.22
2023-03-27T14:42:32.048Z,100127.94
2023-03-27T14:45:18.239Z,100146.91
2023-03-27T14:47:55.772Z,100115.66
2023-03-27T14:50:26.664Z,100132.94
2023-03-27T14:52:57.253Z,100092.66
2023-03-27T14:55:31.871Z,100144.22
2023-03-27T14:58:10.928Z,100136.63
2023-03-27T15:00:41.996Z,100161.84
2023-03-27T15:03:16.637Z,100156.69
2023-03-27T15:05:57.842Z,100164.31
2023-03-27T15:08:29.825Z,99997.72
2023-03-27T15:10:57.997Z,100172.13
2023-03-27T15:13:28.353Z,100151.28
2023-03-27T15:16:04.061Z,100142.56
2023-03-27T15:18:36.228Z,100147.63
2023-03-27T15:21:10.232Z,100184.50
2023-03-27T15:23:43.937Z,100132.31
2023-03-27T15:26:20.034Z,100161.38
2023-03-27T15:28:55.214Z,100200.81
2023-03-27T15:31:25.791Z,100192.81
2023-03-27T15:34:02.194Z,100137.03
2023-03-27T15:36:34.489Z,100192.03
2023-03-27T15:39:04.951Z,100195.19
2023-03-27T15:41:52.333Z,100197.16
2023-03-27T15:44:23.208Z,100208.91
2023-03-27T15:46:57.900Z,100202.78
2023-03-27T15:49:29.635Z,100145.50
2023-03-27T15:52:02.256Z,100228.41
2023-03-27T15:54:33.314Z,100131.19
2023-03-27T15:57:09.162Z,100049.00
2023-03-27T15:59:51.828Z,100221.38
2023-03-27T16:02:22.829Z,100227.41
2023-03-27T16:04:54.455Z,100192.00
2023-03-27T16:07:27.346Z,100119.75
2023-03-27T16:09:58.498Z,100229.16
2023-03-27T16:12:33.398Z,100231.41
2023-03-27T16:15:05.806Z,100237.56
2023-03-27T16:17:41.176Z,100242.59
2023-03-27T16:20:32.522Z,100181.72
2023-03-27T16:23:02.325Z,100247.53
2023-03-27T16:25:30.301Z,100244.75
2023-03-27T16:27:58.891Z,100255.50
2023-03-27T16:30:30.694Z,100192.03
2023-03-27T16:33:00.687Z,100265.47
2023-03-27T16:35:29.403Z,100147.50
2023-03-27T16:37:57.896Z,100269.28
2023-03-27T16:40:27.735Z,100274.31
2023-03-27T16:42:55.749Z,100289.53
2023-03-27T16:45:23.732Z,100283.28
2023-03-27T16:47:55.128Z,100226.34
2023-03-27T16:50:25.661Z,100273.69
2023-03-27T16:52:53.934Z,100291.34
2023-03-27T16:55:22.338Z,100297.16
2023-03-27T16:57:52.523Z,100303.97
2023-03-27T17:00:21.345Z,100307.22
2023-03-27T17:02:49.428Z,100313.16
2023-03-27T17:05:17.752Z,100308.69
2023-03-27T17:07:47.005Z,100324.66
2023-03-27T17:10:15.838Z,100321.88
2023-03-27T17:12:43.882Z,100322.66
2023-03-27T17:15:15.139Z,100343.09
2023-03-27T17:17:43.157Z,100334.38
2023-03-27T17:20:12.158Z,100345.44
2023-03-27T17:22:40.430Z,100347.00
2023-03-27T17:25:10.056Z,100346.78
2023-03-27T17:27:38.409Z,100341.66
2023-03-27T17:30:07.453Z,100348.25
2023-03-27T17:32:37.245Z,100356.72
2023-03-27T17:35:05.644Z,100365.31
2023-03-27T17:37:35.078Z,100371.25
2023-03-27T17:40:06.079Z,100330.47
2023-03-27T17:42:34.270Z,100361.66
2023-03-27T17:45:02.181Z,100359.19
2023-03-27T17:47:33.378Z,100301.69
2023-03-27T17:50:04.331Z,100365.22
2023-03-27T17:52:33.404Z,100365.31
2023-03-27T17:55:01.268Z,100373.13
2023-03-27T17:57:29.628Z,100369.78
2023-03-27T17:59:57.794Z,100381.72
2023-03-27T18:02:25.768Z,100339.94
2023-03-27T18:04:53.755Z,100372.03
2023-03-27T18:07:24.297Z,100380.50
2023-03-27T18:09:52.837Z,100306.50
2023-03-27T18:12:21.162Z,100379.72
2023-03-27T18:14:49.457Z,100348.63
2023-03-27T18:17:21.030Z,100376.25
2023-03-27T18:19:49.205Z,100376.16
2023-03-27T18:22:17.691Z,100372.69
2023-03-27T18:24:47.021Z,100372.81
2023-03-27T18:27:16.760Z,100378.81
2023-03-27T18:29:44.869Z,100351.66
2023-03-27T18:32:12.957Z,100383.06
2023-03-27T18:34:41.330Z,100384.84
2023-03-27T18:37:09.540Z,100388.19
2023-03-27T18:39:37.997Z,100346.41
2023-03-27T18:42:08.874Z,100392.56
2023-03-27T18:44:39.309Z,100404.59
2023-03-27T18:47:08.812Z,100393.34
2023-03-27T18:49:36.971Z,100404.38
2023-03-27T18:52:05.311Z,100396.56
2023-03-27T18:54:33.208Z,100397.56
2023-03-27T18:57:01.135Z,100400.25
2023-03-27T18:59:30.779Z,100187.00
2023-03-27T19:01:58.814Z,100407.72
2023-03-27T19:04:26.760Z,100405.94
2023-03-27T19:06:54.823Z,100415.44
2023-03-27T19:09:31.193Z,100358.22
2023-03-27T19:12:09.170Z,100412.09
2023-03-27T19:14:38.448Z,100415.44
2023-03-27T19:17:06.512Z,100412.09
2023-03-27T19:19:34.638Z,100262.78
2023-03-27T19:22:02.591Z,100421.56
2023-03-27T19:24:30.470Z,100393.25
2023-03-27T19:26:58.530Z,100438.75
2023-03-27T19:29:26.395Z,100368.72
2023-03-27T19:31:55.772Z,100417.22
2023-03-27T19:34:40.109Z,100397.28
2023-03-27T19:37:10.193Z,100426.47
2023-03-27T19:39:38.427Z,100350.53
2023-03-27T19:42:06.975Z,100429.03
2023-03-27T19:44:34.873Z,100410.97
2023-03-27T19:47:04.766Z,100424.69
2023-03-27T19:49:32.638Z,100342.72
2023-03-27T19:52:07.419Z,100415.31
2023-03-27T19:54:37.613Z,100435.06
2023-03-27T19:57:05.597Z,100420.34
2023-03-27T19:59:33.802Z,100394.38
2023-03-27T20:02:01.856Z,100419.38
2023-03-27T20:04:31.267Z,100421.03
2023-03-27T20:07:01.936Z,100315.41
2023-03-27T20:09:30.415Z,100413.78
2023-03-27T20:12:02.711Z,100428.75
2023-03-27T20:14:30.959Z,100431.19
2023-03-27T20:17:01.136Z,100432.66
2023-03-27T20:19:31.517Z,100432.66
2023-03-27T20:21:59.604Z,100433.44
2023-03-27T20:24:28.998Z,100425.16
2023-03-27T20:26:57.615Z,100437.66
2023-03-27T20:29:33.452Z,100449.59
2023-03-27T20:32:01.496Z,100442.69
2023-03-27T20:34:32.317Z,100459.75
2023-03-27T20:37:00.959Z,100389.44
2023-03-27T20:39:31.374Z,100446.03
2023-03-27T20:41:59.393Z,100448.38
2023-03-27T20:44:35.624Z,100448.38
2023-03-27T20:47:12.146Z,100394.13
2023-03-27T20:49:43.595Z,100456.19
2023-03-27T20:52:13.330Z,100446.81
2023-03-27T20:54:41.411Z,100400.81
2023-03-27T20:57:10.049Z,100422.47
2023-03-27T20:59:38.296Z,100421.47
2023-03-27T21:02:06.903Z,100473.47
2023-03-27T21:04:35.040Z,100452.06
2023-03-27T21:07:05.227Z,100413.66
2023-03-27T21:09:33.102Z,100402.16
2023-03-27T21:12:01.634Z,100444.25
2023-03-27T21:14:29.621Z,100413.00
2023-03-27T21:16:57.564Z,100439.22
2023-03-27T21:19:26.694Z,100440.78
2023-03-27T21:21:57.075Z,100430.50
2023-03-27T21:24:28.780Z,100448.03
2023-03-27T21:26:57.015Z,100404.28
2023-03-27T21:29:26.207Z,100451.38
2023-03-27T21:31:54.240Z,100461.53
2023-03-27T21:34:22.341Z,100456.41
2023-03-27T21:36:50.487Z,100454.59
2023-03-27T21:39:18.500Z,100460.63
2023-03-27T21:41:47.792Z,100393.09
2023-03-27T21:44:15.635Z,100432.94
2023-03-27T21:46:43.595Z,100451.94
2023-03-27T21:49:11.602Z,100457.28
2023-03-27T21:51:39.418Z,100429.50
2023-03-27T21:54:07.381Z,100458.19
2023-03-27T21:56:35.355Z,100415.19
2023-03-27T21:59:05.982Z,100460.97
2023-03-27T22:01:34.185Z,100456.84
2023-03-27T22:04:02.703Z,100469.78
2023-03-27T22:06:30.780Z,100464.66
2023-03-27T22:08:58.910Z,100460.31
2023-03-27T22:11:26.955Z,100464.53
2023-03-27T22:13:54.906Z,100463.75
2023-03-27T22:16:24.409Z,100439.75
2023-03-27T22:18:52.577Z,100467.13
2023-03-27T22:21:23.678Z,100487.75
2023-03-27T22:23:52.633Z,100472.25
2023-03-27T22:26:21.731Z,100443.78
2023-03-27T22:28:52.494Z,100390.19
2023-03-27T22:31:21.234Z,100459.97
2023-03-27T22:33:51.216Z,100473.69
2023-03-27T22:36:19.246Z,100470.13
2023-03-27T22:38:47.726Z,100470.91
2023-03-27T22:41:16.291Z,100488.97
2023-03-27T22:43:44.829Z,100477.81
2023-03-27T22:46:16.405Z,100460.94
2023-03-27T22:48:44.790Z,100469.34
2023-03-27T22:51:14.916Z,100471.78
2023-03-27T22:53:42.896Z,100471.78
2023-03-27T22:56:11.222Z,100295.69
2023-03-27T22:58:39.186Z,100396.66
2023-03-27T23:01:08.135Z,100449.47
2023-03-27T23:03:36.543Z,100477.81
2023-03-27T23:06:04.919Z,100476.03
2023-03-27T23:08:35.327Z,100478.47
2023-03-27T23:11:05.739Z,100482.81
2023-03-27T23:13:36.519Z,100489.41
2023-03-27T23:16:04.706Z,100493.75
2023-03-27T23:18:32.624Z,100484.28
2023-03-27T23:21:01.975Z,100490.19
2023-03-27T23:23:31.614Z,100475.44
2023-03-27T23:26:04.367Z,100490.06
2023-03-27T23:28:34.958Z,100464.81
2023-03-27T23:31:04.750Z,100502.66
2023-03-27T23:33:35.992Z,100503.44
2023-03-27T23:36:07.307Z,100495.75
2023-03-27T23:38:35.679Z,100306.53
2023-03-27T23:41:06.264Z,100457.53
2023-03-27T23:43:37.540Z,100474.84
2023-03-27T23:46:08.845Z,100501.66
2023-03-27T23:48:36.824Z,100514.47
2023-03-27T23:51:05.307Z,100499.75
2023-03-27T23:53:33.630Z,100450.16
2023-03-27T23:56:02.233Z,100505.78
2023-03-27T23:58:32.668Z,100479.84
